sensor_id;sensor_type;location;lat;lon;timestamp;pressure;altitude;pressure_sealevel;temperature;humidity
66664;BME280;59683;51.428;-1.994;2023-07-13T00:01:15;100711.75;;;11.68;100.00
66664;BME280;59683;51.428;-1.994;2023-07-13T00:03:43;100726.16;;;11.86;100.00
66664;BME280;59683;51.428;-1.994;2023-07-13T00:06:09;100715.75;;;11.95;100.00
66664;BME280;59683;51.428;-1.994;2023-07-13T00:08:35;100724.81;;;12.13;100.00
66664;BME280;59683;51.428;-1.994;2023-07-13T00:11:01;100720.81;;;12.19;100.00
66664;BME280;59683;51.428;-1.994;2023-07-13T00:13:28;100713.72;;;12.19;100.00
66664;BME280;59683;51.428;-1.994;2023-07-13T00:15:54;100722.63;;;12.18;100.00
66664;BME280;59683;51.428;-1.994;2023-07-13T00:18:20;100716.72;;;12.14;100.00
66664;BME280;59683;51.428;-1.994;2023-07-13T00:20:46;100717.59;;;12.15;100.00
66664;BME280;59683;51.428;-1.994;2023-07-13T00:23:11;100718.28;;;12.17;100.00
66664;BME280;59683;51.428;-1.994;2023-07-13T00:25:37;100727.56;;;12.23;100.00
66664;BME280;59683;51.428;-1.994;2023-07-13T00:28:02;100715.44;;;12.30;100.00
66664;BME280;59683;51.428;-1.994;2023-07-13T00:30:28;100725.66;;;12.34;100.00
66664;BME280;59683;51.428;-1.994;2023-07-13T00:32:53;100719.38;;;12.35;100.00
66664;BME280;59683;51.428;-1.994;2023-07-13T00:35:18;100714.78;;;12.37;100.00
66664;BME280;59683;51.428;-1.994;2023-07-13T00:37:44;100718.94;;;12.30;100.00
66664;BME280;59683;51.428;-1.994;2023-07-13T00:40:12;100711.34;;;12.26;100.00
66664;BME280;59683;51.428;-1.994;2023-07-13T00:42:38;100708.50;;;12.18;100.00
66664;BME280;59683;51.428;-1.994;2023-07-13T00:47:49;100704.56;;;11.91;100.00
66664;BME280;59683;51.428;-1.994;2023-07-13T00:50:16;100707.84;;;11.83;100.00
66664;BME280;59683;51.428;-1.994;2023-07-13T00:52:46;100693.53;;;11.75;100.00
66664;BME280;59683;51.428;-1.994;2023-07-13T00:55:14;100695.84;;;11.68;100.00
66664;BME280;59683;51.428;-1.994;2023-07-13T00:57:41;100698.75;;;11.65;100.00
66664;BME280;59683;51.428;-1.994;2023-07-13T01:00:08;100699.00;;;11.62;100.00
66664;BME280;59683;51.428;-1.994;2023-07-13T01:02:35;100698.41;;;11.58;100.00
66664;BME280;59683;51.428;-1.994;2023-07-13T01:05:09;100694.91;;;11.58;100.00
66664;BME280;59683;51.428;-1.994;2023-07-13T01:07:34;100691.56;;;11.56;100.00
66664;BME280;59683;51.428;-1.994;2023-07-13T01:10:00;100700.00;;;11.50;100.00
66664;BME280;59683;51.428;-1.994;2023-07-13T01:12:26;100701.97;;;11.48;100.00
66664;BME280;59683;51.428;-1.994;2023-07-13T01:14:57;100700.53;;;11.43;100.00
66664;BME280;59683;51.428;-1.994;2023-07-13T01:17:24;100702.91;;;11.47;100.00
66664;BME280;59683;51.428;-1.994;2023-07-13T01:19:49;100697.25;;;11.51;100.00
66664;BME280;59683;51.428;-1.994;2023-07-13T01:22:16;100707.81;;;11.62;100.00
66664;BME280;59683;51.428;-1.994;2023-07-13T01:24:45;100702.19;;;11.77;100.00
66664;BME280;59683;51.428;-1.994;2023-07-13T01:27:16;100699.16;;;11.81;100.00
66664;BME280;59683;51.428;-1.994;2023-07-13T01:29:44;100695.09;;;11.77;100.00
66664;BME280;59683;51.428;-1.994;2023-07-13T01:32:21;100692.94;;;11.71;100.00
66664;BME280;59683;51.428;-1.994;2023-07-13T01:34:49;100693.31;;;11.66;100.00
66664;BME280;59683;51.428;-1.994;2023-07-13T01:37:15;100696.34;;;11.62;100.00
66664;BME280;59683;51.428;-1.994;2023-07-13T01:39:40;100700.69;;;11.63;100.00
66664;BME280;59683;51.428;-1.994;2023-07-13T01:42:06;100697.56;;;11.58;100.00
66664;BME280;59683;51.428;-1.994;2023-07-13T01:44:31;100698.53;;;11.57;100.00
66664;BME280;59683;51.428;-1.994;2023-07-13T01:46:58;100687.34;;;11.53;100.00
66664;BME280;59683;51.428;-1.994;2023-07-13T01:49:23;100690.63;;;11.46;100.00
66664;BME280;59683;51.428;-1.994;2023-07-13T01:51:49;100696.19;;;11.31;100.00
66664;BME280;59683;51.428;-1.994;2023-07-13T01:54:14;100686.22;;;11.24;100.00
66664;BME280;59683;51.428;-1.994;2023-07-13T01:56:40;100684.09;;;11.17;100.00
66664;BME280;59683;51.428;-1.994;2023-07-13T01:59:07;100691.31;;;11.15;100.00
66664;BME280;59683;51.428;-1.994;2023-07-13T02:01:33;100689.63;;;11.14;100.00
66664;BME280;59683;51.428;-1.994;2023-07-13T02:03:58;100694.81;;;11.16;100.00
66664;BME280;59683;51.428;-1.994;2023-07-13T02:06:24;100692.88;;;11.18;100.00
66664;BME280;59683;51.428;-1.994;2023-07-13T02:08:49;100690.00;;;11.21;100.00
66664;BME280;59683;51.428;-1.994;2023-07-13T02:11:14;100687.44;;;11.19;100.00
66664;BME280;59683;51.428;-1.994;2023-07-13T02:13:40;100692.63;;;11.21;100.00
66664;BME280;59683;51.428;-1.994;2023-07-13T02:16:06;100696.00;;;11.23;100.00
66664;BME280;59683;51.428;-1.994;2023-07-13T02:18:31;100687.34;;;11.21;100.00
66664;BME280;59683;51.428;-1.994;2023-07-13T02:20:57;100698.28;;;11.16;100.00
66664;BME280;59683;51.428;-1.994;2023-07-13T02:23:22;100687.47;;;11.08;100.00
66664;BME280;59683;51.428;-1.994;2023-07-13T02:25:48;100696.38;;;11.07;100.00
66664;BME280;59683;51.428;-1.994;2023-07-13T02:28:13;100693.50;;;11.10;100.00
66664;BME280;59683;51.428;-1.994;2023-07-13T02:30:39;100687.84;;;11.04;100.00
66664;BME280;59683;51.428;-1.994;2023-07-13T02:33:05;100683.88;;;10.98;100.00
66664;BME280;59683;51.428;-1.994;2023-07-13T02:35:30;100689.91;;;11.00;100.00
66664;BME280;59683;51.428;-1.994;2023-07-13T02:37:56;100690.88;;;10.99;100.00
66664;BME280;59683;51.428;-1.994;2023-07-13T02:40:21;100691.25;;;10.94;100.00
66664;BME280;59683;51.428;-1.994;2023-07-13T02:42:47;100694.72;;;10.95;100.00
66664;BME280;59683;51.428;-1.994;2023-07-13T02:45:12;100686.06;;;10.93;100.00
66664;BME280;59683;51.428;-1.994;2023-07-13T02:47:40;100691.47;;;11.03;100.00
66664;BME280;59683;51.428;-1.994;2023-07-13T02:50:06;100683.84;;;11.09;100.00
66664;BME280;59683;51.428;-1.994;2023-07-13T02:52:31;100687.81;;;11.15;100.00
66664;BME280;59683;51.428;-1.994;2023-07-13T02:54:57;100687.06;;;11.24;100.00
66664;BME280;59683;51.428;-1.994;2023-07-13T02:57:22;100695.25;;;11.32;100.00
66664;BME280;59683;51.428;-1.994;2023-07-13T02:59:48;100690.06;;;11.31;100.00
66664;BME280;59683;51.428;-1.994;2023-07-13T03:02:13;100692.97;;;11.28;100.00
66664;BME280;59683;51.428;-1.994;2023-07-13T03:04:39;100696.34;;;11.30;100.00
66664;BME280;59683;51.428;-1.994;2023-07-13T03:07:06;100690.91;;;11.31;100.00
66664;BME280;59683;51.428;-1.994;2023-07-13T03:09:33;100692.03;;;11.29;100.00
66664;BME280;59683;51.428;-1.994;2023-07-13T03:11:59;100699.81;;;11.30;100.00
66664;BME280;59683;51.428;-1.994;2023-07-13T03:14:24;100693.78;;;11.28;100.00
66664;BME280;59683;51.428;-1.994;2023-07-13T03:16:50;100691.50;;;11.35;100.00
66664;BME280;59683;51.428;-1.994;2023-07-13T03:19:17;100691.59;;;11.45;100.00
66664;BME280;59683;51.428;-1.994;2023-07-13T03:21:42;100697.75;;;11.45;100.00
66664;BME280;59683;51.428;-1.994;2023-07-13T03:24:08;100695.13;;;11.34;100.00
66664;BME280;59683;51.428;-1.994;2023-07-13T03:26:33;100691.44;;;11.25;100.00
66664;BME280;59683;51.428;-1.994;2023-07-13T03:28:59;100704.06;;;11.22;100.00
66664;BME280;59683;51.428;-1.994;2023-07-13T03:31:28;100702.50;;;11.19;100.00
66664;BME280;59683;51.428;-1.994;2023-07-13T03:33:55;100698.41;;;11.15;100.00
66664;BME280;59683;51.428;-1.994;2023-07-13T03:36:25;100696.84;;;11.12;100.00
66664;BME280;59683;51.428;-1.994;2023-07-13T03:38:52;100701.81;;;11.17;100.00
66664;BME280;59683;51.428;-1.994;2023-07-13T03:41:19;100702.38;;;11.09;100.00
66664;BME280;59683;51.428;-1.994;2023-07-13T03:43:45;100697.84;;;11.00;100.00
66664;BME280;59683;51.428;-1.994;2023-07-13T03:46:10;100702.31;;;11.00;100.00
66664;BME280;59683;51.428;-1.994;2023-07-13T03:48:36;100700.50;;;11.00;100.00
66664;BME280;59683;51.428;-1.994;2023-07-13T03:51:02;100700.72;;;10.97;100.00
66664;BME280;59683;51.428;-1.994;2023-07-13T03:53:28;100700.50;;;10.89;100.00
66664;BME280;59683;51.428;-1.994;2023-07-13T11:39:18;100813.72;;;19.65;100.00
66664;BME280;59683;51.428;-1.994;2023-07-13T11:41:57;100803.00;;;20.72;100.00
66664;BME280;59683;51.428;-1.994;2023-07-13T11:44:24;100798.41;;;21.10;100.00
66664;BME280;59683;51.428;-1.994;2023-07-13T11:46:55;100793.47;;;22.01;100.00
66664;BME280;59683;51.428;-1.994;2023-07-13T11:49:24;100792.28;;;23.10;100.00
66664;BME280;59683;51.428;-1.994;2023-07-13T11:51:51;100803.66;;;24.34;100.00
66664;BME280;59683;51.428;-1.994;2023-07-13T11:54:33;100789.44;;;24.92;100.00
66664;BME280;59683;51.428;-1.994;2023-07-13T11:59:49;100786.75;;;26.52;100.00
66664;BME280;59683;51.428;-1.994;2023-07-13T12:02:20;100774.81;;;26.53;100.00
66664;BME280;59683;51.428;-1.994;2023-07-13T12:04:49;100782.28;;;26.57;100.00
66664;BME280;59683;51.428;-1.994;2023-07-13T12:07:18;100779.09;;;26.85;100.00
66664;BME280;59683;51.428;-1.994;2023-07-13T12:09:44;100776.81;;;26.64;100.00
66664;BME280;59683;51.428;-1.994;2023-07-13T12:12:16;100774.06;;;26.46;100.00
66664;BME280;59683;51.428;-1.994;2023-07-13T12:14:42;100772.59;;;26.18;100.00
66664;BME280;59683;51.428;-1.994;2023-07-13T12:17:17;100769.81;;;26.25;100.00
66664;BME280;59683;51.428;-1.994;2023-07-13T12:19:43;100762.28;;;25.63;100.00
66664;BME280;59683;51.428;-1.994;2023-07-13T12:22:12;100760.16;;;25.72;100.00
66664;BME280;59683;51.428;-1.994;2023-07-13T12:24:40;100771.38;;;25.44;100.00
66664;BME280;59683;51.428;-1.994;2023-07-13T12:27:13;100761.00;;;24.56;100.00
66664;BME280;59683;51.428;-1.994;2023-07-13T12:29:49;100757.69;;;23.33;100.00
66664;BME280;59683;51.428;-1.994;2023-07-13T12:32:17;100764.91;;;22.28;100.00
66664;BME280;59683;51.428;-1.994;2023-07-13T12:34:56;100775.44;;;21.59;100.00
66664;BME280;59683;51.428;-1.994;2023-07-13T12:37:23;100765.28;;;20.80;100.00
66664;BME280;59683;51.428;-1.994;2023-07-13T12:39:49;100781.09;;;20.60;100.00
66664;BME280;59683;51.428;-1.994;2023-07-13T12:42:25;100775.25;;;20.57;100.00
66664;BME280;59683;51.428;-1.994;2023-07-13T12:44:54;100776.56;;;21.50;100.00
66664;BME280;59683;51.428;-1.994;2023-07-13T12:47:22;100766.06;;;21.76;100.00
66664;BME280;59683;51.428;-1.994;2023-07-13T12:49:50;100764.03;;;21.78;100.00
66664;BME280;59683;51.428;-1.994;2023-07-13T12:52:22;100760.88;;;21.75;100.00
66664;BME280;59683;51.428;-1.994;2023-07-13T12:55:07;100772.22;;;21.34;100.00
66664;BME280;59683;51.428;-1.994;2023-07-13T12:57:58;100774.28;;;20.73;100.00
66664;BME280;59683;51.428;-1.994;2023-07-13T13:02:52;100778.19;;;20.47;100.00
66664;BME280;59683;51.428;-1.994;2023-07-13T13:05:18;100768.78;;;19.91;100.00
66664;BME280;59683;51.428;-1.994;2023-07-13T13:07:46;100765.06;;;19.69;100.00
66664;BME280;59683;51.428;-1.994;2023-07-13T13:10:13;100774.41;;;19.73;100.00
66664;BME280;59683;51.428;-1.994;2023-07-13T13:12:39;100766.63;;;20.09;100.00
66664;BME280;59683;51.428;-1.994;2023-07-13T13:15:08;100757.66;;;20.17;100.00
66664;BME280;59683;51.428;-1.994;2023-07-13T13:17:34;100773.34;;;20.28;100.00
66664;BME280;59683;51.428;-1.994;2023-07-13T13:19:59;100782.47;;;20.19;100.00
66664;BME280;59683;51.428;-1.994;2023-07-13T13:22:25;100782.13;;;20.59;100.00
66664;BME280;59683;51.428;-1.994;2023-07-13T13:24:50;100780.50;;;20.73;100.00
66664;BME280;59683;51.428;-1.994;2023-07-13T13:27:21;100777.16;;;20.86;100.00
66664;BME280;59683;51.428;-1.994;2023-07-13T13:29:49;100780.19;;;21.27;100.00
66664;BME280;59683;51.428;-1.994;2023-07-13T13:32:17;100782.31;;;21.83;100.00
66664;BME280;59683;51.428;-1.994;2023-07-13T13:34:44;100781.78;;;24.03;100.00
66664;BME280;59683;51.428;-1.994;2023-07-13T13:37:21;100768.66;;;24.79;100.00
66664;BME280;59683;51.428;-1.994;2023-07-13T13:39:47;100774.19;;;25.24;100.00
66664;BME280;59683;51.428;-1.994;2023-07-13T13:42:13;100777.88;;;25.75;100.00
66664;BME280;59683;51.428;-1.994;2023-07-13T13:44:39;100770.97;;;26.35;100.00
66664;BME280;59683;51.428;-1.994;2023-07-13T13:47:17;100763.69;;;26.61;100.00
66664;BME280;59683;51.428;-1.994;2023-07-13T13:49:46;100755.97;;;27.20;100.00
66664;BME280;59683;51.428;-1.994;2023-07-13T13:52:12;100755.38;;;26.56;100.00
66664;BME280;59683;51.428;-1.994;2023-07-13T13:54:38;100758.34;;;25.66;100.00
66664;BME280;59683;51.428;-1.994;2023-07-13T13:57:04;100747.84;;;24.73;100.00
66664;BME280;59683;51.428;-1.994;2023-07-13T13:59:30;100746.63;;;23.89;100.00
66664;BME280;59683;51.428;-1.994;2023-07-13T14:01:57;100750.63;;;23.32;100.00
66664;BME280;59683;51.428;-1.994;2023-07-13T14:04:25;100751.41;;;22.50;100.00
66664;BME280;59683;51.428;-1.994;2023-07-13T14:06:50;100774.31;;;21.53;100.00
66664;BME280;59683;51.428;-1.994;2023-07-13T14:09:18;100753.69;;;20.27;100.00
66664;BME280;59683;51.428;-1.994;2023-07-13T14:11:44;100766.22;;;19.35;100.00
66664;BME280;59683;51.428;-1.994;2023-07-13T14:14:16;100770.75;;;18.95;100.00
66664;BME280;59683;51.428;-1.994;2023-07-13T14:16:43;100770.28;;;19.31;100.00
66664;BME280;59683;51.428;-1.994;2023-07-13T14:19:11;100767.75;;;19.69;100.00
66664;BME280;59683;51.428;-1.994;2023-07-13T14:21:37;100773.59;;;19.95;100.00
66664;BME280;59683;51.428;-1.994;2023-07-13T14:24:03;100766.66;;;20.01;100.00
66664;BME280;59683;51.428;-1.994;2023-07-13T14:26:34;100762.91;;;20.48;100.00
66664;BME280;59683;51.428;-1.994;2023-07-13T14:29:01;100765.28;;;20.95;100.00
66664;BME280;59683;51.428;-1.994;2023-07-13T14:31:27;100762.50;;;21.33;100.00
66664;BME280;59683;51.428;-1.994;2023-07-13T14:33:55;100753.75;;;21.67;100.00
66664;BME280;59683;51.428;-1.994;2023-07-13T14:38:49;100748.66;;;23.81;100.00
66664;BME280;59683;51.428;-1.994;2023-07-13T14:41:15;100759.97;;;24.44;100.00
66664;BME280;59683;51.428;-1.994;2023-07-13T14:43:40;100758.38;;;25.14;100.00
66664;BME280;59683;51.428;-1.994;2023-07-13T14:46:11;100763.44;;;25.42;100.00
66664;BME280;59683;51.428;-1.994;2023-07-13T14:48:43;100756.31;;;25.10;100.00
66664;BME280;59683;51.428;-1.994;2023-07-13T14:51:09;100751.63;;;24.32;100.00
66664;BME280;59683;51.428;-1.994;2023-07-13T14:53:35;100751.81;;;23.78;100.00
66664;BME280;59683;51.428;-1.994;2023-07-13T14:56:10;100754.50;;;23.91;100.00
66664;BME280;59683;51.428;-1.994;2023-07-13T14:58:35;100759.34;;;24.15;100.00
66664;BME280;59683;51.428;-1.994;2023-07-13T15:01:01;100750.34;;;23.75;100.00
66664;BME280;59683;51.428;-1.994;2023-07-13T15:03:26;100759.03;;;23.64;100.00
66664;BME280;59683;51.428;-1.994;2023-07-13T15:05:52;100758.94;;;23.37;100.00
66664;BME280;59683;51.428;-1.994;2023-07-13T15:08:18;100756.78;;;23.19;100.00
66664;BME280;59683;51.428;-1.994;2023-07-13T15:10:44;100763.59;;;23.09;100.00
66664;BME280;59683;51.428;-1.994;2023-07-13T15:15:49;100758.78;;;23.52;100.00
66664;BME280;59683;51.428;-1.994;2023-07-13T15:18:16;100754.00;;;23.61;100.00
66664;BME280;59683;51.428;-1.994;2023-07-13T15:20:44;100753.28;;;24.07;100.00
66664;BME280;59683;51.428;-1.994;2023-07-13T15:23:14;100748.06;;;23.79;100.00
66664;BME280;59683;51.428;-1.994;2023-07-13T15:25:41;100754.41;;;23.51;100.00
66664;BME280;59683;51.428;-1.994;2023-07-13T15:28:10;100757.03;;;23.31;100.00
66664;BME280;59683;51.428;-1.994;2023-07-13T15:30:47;100752.00;;;22.80;100.00
66664;BME280;59683;51.428;-1.994;2023-07-13T15:33:17;100753.88;;;22.51;100.00
66664;BME280;59683;51.428;-1.994;2023-07-13T15:35:44;100750.06;;;22.39;100.00
66664;BME280;59683;51.428;-1.994;2023-07-13T15:38:18;100751.28;;;22.37;100.00
66664;BME280;59683;51.428;-1.994;2023-07-13T15:40:44;100756.47;;;22.66;100.00
66664;BME280;59683;51.428;-1.994;2023-07-13T15:43:11;100757.19;;;23.10;100.00
66664;BME280;59683;51.428;-1.994;2023-07-13T15:45:36;100755.91;;;23.12;100.00
66664;BME280;59683;51.428;-1.994;2023-07-13T15:48:18;100756.28;;;22.96;100.00
66664;BME280;59683;51.428;-1.994;2023-07-13T15:50:50;100756.91;;;22.70;100.00
66664;BME280;59683;51.428;-1.994;2023-07-13T15:53:20;100754.63;;;22.39;100.00
66664;BME280;59683;51.428;-1.994;2023-07-13T15:55:48;100752.25;;;22.07;100.00
66664;BME280;59683;51.428;-1.994;2023-07-13T15:58:14;100753.06;;;22.01;100.00
66664;BME280;59683;51.428;-1.994;2023-07-13T16:00:40;100755.75;;;21.80;100.00
66664;BME280;59683;51.428;-1.994;2023-07-13T16:03:07;100751.06;;;21.67;100.00
66664;BME280;59683;51.428;-1.994;2023-07-13T16:05:33;100763.47;;;21.47;100.00
66664;BME280;59683;51.428;-1.994;2023-07-13T16:07:59;100761.91;;;21.38;100.00
66664;BME280;59683;51.428;-1.994;2023-07-13T16:10:33;100758.50;;;21.14;100.00
66664;BME280;59683;51.428;-1.994;2023-07-13T16:12:59;100761.34;;;21.13;100.00
66664;BME280;59683;51.428;-1.994;2023-07-13T16:15:25;100767.03;;;21.18;100.00
66664;BME280;59683;51.428;-1.994;2023-07-13T16:17:51;100760.38;;;21.50;100.00
66664;BME280;59683;51.428;-1.994;2023-07-13T16:20:17;100755.28;;;21.76;100.00
66664;BME280;59683;51.428;-1.994;2023-07-13T16:22:48;100752.56;;;22.41;100.00
66664;BME280;59683;51.428;-1.994;2023-07-13T16:25:32;100761.59;;;22.89;100.00
66664;BME280;59683;51.428;-1.994;2023-07-13T16:27:58;100765.34;;;23.97;93.98
66664;BME280;59683;51.428;-1.994;2023-07-13T16:30:29;100762.84;;;24.62;94.25
66664;BME280;59683;51.428;-1.994;2023-07-13T16:32:59;100765.41;;;25.29;93.32
66664;BME280;59683;51.428;-1.994;2023-07-13T16:35:31;100761.84;;;26.55;73.39
66664;BME280;59683;51.428;-1.994;2023-07-13T16:38:00;100757.28;;;27.29;62.09
66664;BME280;59683;51.428;-1.994;2023-07-13T16:40:30;100766.72;;;27.75;58.61
66664;BME280;59683;51.428;-1.994;2023-07-13T16:42:57;100766.41;;;26.79;67.73
66664;BME280;59683;51.428;-1.994;2023-07-13T16:45:25;100756.31;;;26.18;71.19
66664;BME280;59683;51.428;-1.994;2023-07-13T16:47:53;100753.38;;;26.20;74.49
66664;BME280;59683;51.428;-1.994;2023-07-13T16:50:25;100765.41;;;27.10;64.06
66664;BME280;59683;51.428;-1.994;2023-07-13T16:52:51;100769.84;;;28.02;57.03
66664;BME280;59683;51.428;-1.994;2023-07-13T16:55:19;100771.75;;;28.01;58.96
66664;BME280;59683;51.428;-1.994;2023-07-13T16:57:54;100776.03;;;28.09;55.63
66664;BME280;59683;51.428;-1.994;2023-07-13T17:00:24;100774.50;;;27.23;58.67
66664;BME280;59683;51.428;-1.994;2023-07-13T17:02:55;100773.69;;;27.52;57.07
66664;BME280;59683;51.428;-1.994;2023-07-13T17:05:31;100772.44;;;27.36;56.47
66664;BME280;59683;51.428;-1.994;2023-07-13T17:07:58;100764.06;;;26.83;59.70
66664;BME280;59683;51.428;-1.994;2023-07-13T17:10:24;100767.03;;;26.31;60.08
66664;BME280;59683;51.428;-1.994;2023-07-13T17:12:51;100765.00;;;26.27;61.33
66664;BME280;59683;51.428;-1.994;2023-07-13T17:15:17;100766.41;;;25.79;65.13
66664;BME280;59683;51.428;-1.994;2023-07-13T17:17:45;100761.34;;;25.44;67.64
66664;BME280;59683;51.428;-1.994;2023-07-13T17:20:25;100765.72;;;24.81;74.81
66664;BME280;59683;51.428;-1.994;2023-07-13T17:22:52;100768.03;;;23.97;85.86
66664;BME280;59683;51.428;-1.994;2023-07-13T17:25:19;100764.97;;;23.39;96.68
66664;BME280;59683;51.428;-1.994;2023-07-13T17:27:44;100760.84;;;22.67;100.00
66664;BME280;59683;51.428;-1.994;2023-07-13T17:30:18;100766.94;;;22.20;100.00
66664;BME280;59683;51.428;-1.994;2023-07-13T17:32:45;100764.75;;;21.51;100.00
66664;BME280;59683;51.428;-1.994;2023-07-13T17:35:27;100766.47;;;20.93;100.00
66664;BME280;59683;51.428;-1.994;2023-07-13T17:37:55;100764.22;;;20.52;100.00
66664;BME280;59683;51.428;-1.994;2023-07-13T17:40:21;100759.91;;;20.28;100.00
66664;BME280;59683;51.428;-1.994;2023-07-13T17:42:49;100762.78;;;19.80;100.00
66664;BME280;59683;51.428;-1.994;2023-07-13T17:45:23;100758.56;;;19.55;100.00
66664;BME280;59683;51.428;-1.994;2023-07-13T17:47:50;100754.59;;;19.42;100.00
66664;BME280;59683;51.428;-1.994;2023-07-13T17:50:29;100757.69;;;19.31;100.00
66664;BME280;59683;51.428;-1.994;2023-07-13T17:55:32;100749.94;;;19.36;100.00
66664;BME280;59683;51.428;-1.994;2023-07-13T17:57:58;100759.84;;;19.36;100.00
66664;BME280;59683;51.428;-1.994;2023-07-13T18:00:24;100752.50;;;19.30;100.00
66664;BME280;59683;51.428;-1.994;2023-07-13T18:02:58;100755.88;;;19.24;100.00
66664;BME280;59683;51.428;-1.994;2023-07-13T18:05:26;100751.38;;;19.16;100.00
66664;BME280;59683;51.428;-1.994;2023-07-13T18:07:52;100757.44;;;19.10;100.00
66664;BME280;59683;51.428;-1.994;2023-07-13T18:10:18;100762.50;;;19.05;100.00
66664;BME280;59683;51.428;-1.994;2023-07-13T18:12:46;100763.03;;;19.00;100.00
66664;BME280;59683;51.428;-1.994;2023-07-13T18:15:13;100754.00;;;18.93;100.00
66664;BME280;59683;51.428;-1.994;2023-07-13T18:17:39;100754.81;;;18.93;100.00
66664;BME280;59683;51.428;-1.994;2023-07-13T18:20:05;100754.69;;;18.87;100.00
66664;BME280;59683;51.428;-1.994;2023-07-13T18:22:40;100758.06;;;18.73;100.00
66664;BME280;59683;51.428;-1.994;2023-07-13T18:25:21;100754.53;;;18.64;100.00
66664;BME280;59683;51.428;-1.994;2023-07-13T18:27:47;100749.03;;;18.49;100.00
66664;BME280;59683;51.428;-1.994;2023-07-13T18:30:15;100757.78;;;18.43;100.00
66664;BME280;59683;51.428;-1.994;2023-07-13T18:32:44;100753.09;;;18.29;100.00
66664;BME280;59683;51.428;-1.994;2023-07-13T18:35:21;100750.78;;;18.17;100.00
66664;BME280;59683;51.428;-1.994;2023-07-13T18:37:51;100746.75;;;18.13;100.00
66664;BME280;59683;51.428;-1.994;2023-07-13T18:40:17;100754.44;;;18.00;100.00
66664;BME280;59683;51.428;-1.994;2023-07-13T18:42:44;100756.09;;;17.85;100.00
66664;BME280;59683;51.428;-1.994;2023-07-13T18:45:12;100752.88;;;17.73;100.00
